Ansley, Nebraska
Current Conditions -  °F | °C
As of 9:56 PM on Friday 19 Dec 2014 (Local Time) from KBBW Reporting Station
Haze Haze  
Wind Chill: 23°   Ceiling: Unl
Heat Index: 23°   Visibility: 3mi
Dew Point: 20°   Wind: 3mph
Humidity: 88%   Direction: 360°N
Pressure: 29.99"   Gusts: NA
Location:  41.29°N, 99.38°W
Report Text: KBBW 200356Z AUTO 36003KT 3SM BR FEW002 M05/M07 A2999 RMK AO2 T10501067
Loading
Personal Weather Stations






























Interactive Weather Map New forecast layout! Learn more

10-Day Weather Forecast

Advertisements
Track Severe Weather on mobile